Citta Di Savona — IMDS — position and weather

sailwx.info

Track history (hours):
 
Tides and Currents Weather Stations Pressure Air Temp Water Temp Dewpoint Dewpoint Depression Visibility Wind Speed Wind Dir Waves Ship Positions

Citta Di Savona

Last reported at 2016-Jun-30 19:33 UTC. Time now 2016-Jun-30 19:36 UTC.
Position N 44°18' E 008°29'.

Length 31 m; draft 4.2 m.

Type: Tug. MMSI: 247402000.

Date/timePositionNaut miles runAvg speedWind from/ knotsBaromVisibWave heightAir tempDewpointWater temp
2016-Jun-30 19:33N 44°18' E 008°29'0 0.0
2016-Jun-30 18:33N 44°18' E 008°29'0 0.0
2016-Jun-30 17:33N 44°18' E 008°29'0 0.0
2016-Jun-30 16:33N 44°18' E 008°29'0 0.0
2016-Jun-30 15:33N 44°18' E 008°29'1 0.6
2016-Jun-30 14:33N 44°19' E 008°30'1 0.6
2016-Jun-30 13:33N 44°18' E 008°29'0 0.0
2016-Jun-30 12:33N 44°18' E 008°29'0 0.0
2016-Jun-30 08:11N 44°18' E 008°29'0 0.0
2016-Jun-30 07:33N 44°18' E 008°29'0 0.0
2016-Jun-30 05:33N 44°18' E 008°29'0 0.0
2016-Jun-29 21:13N 44°18' E 008°29'0 0.0
2016-Jun-29 14:34N 44°18' E 008°29'0 0.0
2016-Jun-29 13:33N 44°18' E 008°29'1 0.7
2016-Jun-29 12:33N 44°19' E 008°30'1 0.7
2016-Jun-29 11:33N 44°18' E 008°29'0 0.0
2016-Jun-29 10:33N 44°18' E 008°29'0 0.0
2016-Jun-29 09:34N 44°18' E 008°29'0 0.5
2016-Jun-29 08:34N 44°19' E 008°30'0 0.4
2016-Jun-29 07:33N 44°18' E 008°29'0 0.0
2016-Jun-29 06:33N 44°18' E 008°29'0 0.0
2016-Jun-28 15:07N 44°18' E 008°29'0 0.0
2016-Jun-28 14:33N 44°18' E 008°29'0 0.0
2016-Jun-28 13:33N 44°18' E 008°29'0 0.3
2016-Jun-28 12:33N 44°19' E 008°30'0 0.3
2016-Jun-28 11:33N 44°18' E 008°29'0 0.0
2016-Jun-28 10:33N 44°18' E 008°29'0 0.0
2016-Jun-28 09:33N 44°18' E 008°29'0 0.0
2016-Jun-28 08:33N 44°18' E 008°29'0 0.0
2016-Jun-27 15:33N 44°18' E 008°29'0 0.0
2016-Jun-27 13:33N 44°18' E 008°29'0 0.0
2016-Jun-27 12:33N 44°18' E 008°29'0 0.0
2016-Jun-27 10:20N 44°18' E 008°29'0 0.0
2016-Jun-27 09:33N 44°18' E 008°29'0 0.0
2016-Jun-27 08:33N 44°18' E 008°29'0 0.0
2016-Jun-27 07:33N 44°18' E 008°29'0 0.0
2016-Jun-27 06:33N 44°18' E 008°29'0 0.0
2016-Jun-27 05:33N 44°18' E 008°29'0 0.0
2016-Jun-27 04:33N 44°18' E 008°29'0 0.0
2016-Jun-27 03:33N 44°18' E 008°29'0 0.0
2016-Jun-27 02:33N 44°18' E 008°29'0 0.0
2016-Jun-27 01:33N 44°18' E 008°29'0 0.0
2016-Jun-26 07:33N 44°18' E 008°29'0 0.0
2016-Jun-26 06:33N 44°18' E 008°29'0 0.0
2016-Jun-26 03:33N 44°18' E 008°29'0 0.0
2016-Jun-26 02:33N 44°18' E 008°29'0 0.0
2016-Jun-26 01:33N 44°18' E 008°29'0 0.0
2016-Jun-26 00:33N 44°18' E 008°29'0 0.0
2016-Jun-25 23:33N 44°18' E 008°29'0 0.0
2016-Jun-25 22:33N 44°18' E 008°29'0 0.0
2016-Jun-25 08:06N 44°18' E 008°29'1 1.3
2016-Jun-25 07:33N 44°19' E 008°30'3 3.0
2016-Jun-25 06:33N 44°17' E 008°28'2 2.0
2016-Jun-25 05:33N 44°18' E 008°30'0 0.5
2016-Jun-25 04:33N 44°18' E 008°29'0 0.0
2016-Jun-24 17:09N 44°18' E 008°29'0 0.0
2016-Jun-24 13:17N 44°18' E 008°29'0 0.0
2016-Jun-24 08:33N 44°18' E 008°29'0 0.2
2016-Jun-24 07:34N 44°19' E 008°29'0 0.2
2016-Jun-24 06:33N 44°18' E 008°29'0 0.0
2016-Jun-24 03:33N 44°18' E 008°29'0 0.0
2016-Jun-23 21:33N 44°18' E 008°29'0 0.0
2016-Jun-23 20:33N 44°18' E 008°29'0 0.0
2016-Jun-23 19:33N 44°18' E 008°29'0 0.0
2016-Jun-23 18:33N 44°18' E 008°29'0 0.5
2016-Jun-23 17:33N 44°19' E 008°30'0 0.5
2016-Jun-23 16:33N 44°18' E 008°29'6 6.0
2016-Jun-23 15:33N 44°18' E 008°38'1110.5
2016-Jun-23 14:33N 44°16' E 008°52'1010.4
2016-Jun-23 13:33N 44°12' E 009°06'1010.0
2016-Jun-23 12:33N 44°09' E 009°19'1110.6
2016-Jun-23 11:33N 44°04' E 009°32'1010.1
2016-Jun-23 10:33N 44°01' E 009°45'6 6.4
2016-Jun-23 09:33N 44°05' E 009°52'0 0.1
2016-Jun-23 08:33N 44°05' E 009°53'0 0.0
2016-Jun-22 10:33N 44°05' E 009°53'0 0.2
2016-Jun-22 09:33N 44°05' E 009°52'0 0.2
2016-Jun-22 08:33N 44°05' E 009°53'0 0.0
2016-Jun-21 13:18N 44°05' E 009°53'0 0.0
2016-Jun-21 12:33N 44°05' E 009°53'0 0.0
2016-Jun-21 11:33N 44°05' E 009°53'0 0.0
2016-Jun-21 10:33N 44°05' E 009°53'0 0.0
2016-Jun-21 09:33N 44°05' E 009°53'0 0.0
2016-Jun-21 08:33N 44°05' E 009°53'0 0.0
2016-Jun-21 07:33N 44°05' E 009°53'  
Track history (hours):
 
Tides and Currents Weather Stations Pressure Air Temp Water Temp Dewpoint Dewpoint Depression Visibility Wind Speed Wind Dir Waves Ship Positions

Citta Di Savona

Last reported at 2016-Jun-30 19:33 UTC. Time now 2016-Jun-30 19:36 UTC.
Position N 44°18' E 008°29'.

Length 31 m; draft 4.2 m.

Type: Tug. MMSI: 247402000.

Date/timePositionNaut miles runAvg speedWind from/ knotsBaromVisibWave heightAir tempDewpointWater temp
2016-Jun-30 19:33N 44°18' E 008°29'0 0.0
2016-Jun-30 18:33N 44°18' E 008°29'0 0.0
2016-Jun-30 17:33N 44°18' E 008°29'0 0.0
2016-Jun-30 16:33N 44°18' E 008°29'0 0.0
2016-Jun-30 15:33N 44°18' E 008°29'1 0.6
2016-Jun-30 14:33N 44°19' E 008°30'1 0.6
2016-Jun-30 13:33N 44°18' E 008°29'0 0.0
2016-Jun-30 12:33N 44°18' E 008°29'0 0.0
2016-Jun-30 08:11N 44°18' E 008°29'0 0.0
2016-Jun-30 07:33N 44°18' E 008°29'0 0.0
2016-Jun-30 05:33N 44°18' E 008°29'0 0.0
2016-Jun-29 21:13N 44°18' E 008°29'0 0.0
2016-Jun-29 14:34N 44°18' E 008°29'0 0.0
2016-Jun-29 13:33N 44°18' E 008°29'1 0.7
2016-Jun-29 12:33N 44°19' E 008°30'1 0.7
2016-Jun-29 11:33N 44°18' E 008°29'0 0.0
2016-Jun-29 10:33N 44°18' E 008°29'0 0.0
2016-Jun-29 09:34N 44°18' E 008°29'0 0.5
2016-Jun-29 08:34N 44°19' E 008°30'0 0.4
2016-Jun-29 07:33N 44°18' E 008°29'0 0.0
2016-Jun-29 06:33N 44°18' E 008°29'0 0.0
2016-Jun-28 15:07N 44°18' E 008°29'0 0.0
2016-Jun-28 14:33N 44°18' E 008°29'0 0.0
2016-Jun-28 13:33N 44°18' E 008°29'0 0.3
2016-Jun-28 12:33N 44°19' E 008°30'0 0.3
2016-Jun-28 11:33N 44°18' E 008°29'0 0.0
2016-Jun-28 10:33N 44°18' E 008°29'0 0.0
2016-Jun-28 09:33N 44°18' E 008°29'0 0.0
2016-Jun-28 08:33N 44°18' E 008°29'0 0.0
2016-Jun-27 15:33N 44°18' E 008°29'0 0.0
2016-Jun-27 13:33N 44°18' E 008°29'0 0.0
2016-Jun-27 12:33N 44°18' E 008°29'0 0.0
2016-Jun-27 10:20N 44°18' E 008°29'0 0.0
2016-Jun-27 09:33N 44°18' E 008°29'0 0.0
2016-Jun-27 08:33N 44°18' E 008°29'0 0.0
2016-Jun-27 07:33N 44°18' E 008°29'0 0.0
2016-Jun-27 06:33N 44°18' E 008°29'0 0.0
2016-Jun-27 05:33N 44°18' E 008°29'0 0.0
2016-Jun-27 04:33N 44°18' E 008°29'0 0.0
2016-Jun-27 03:33N 44°18' E 008°29'0 0.0
2016-Jun-27 02:33N 44°18' E 008°29'0 0.0
2016-Jun-27 01:33N 44°18' E 008°29'0 0.0
2016-Jun-26 07:33N 44°18' E 008°29'0 0.0
2016-Jun-26 06:33N 44°18' E 008°29'0 0.0
2016-Jun-26 03:33N 44°18' E 008°29'0 0.0
2016-Jun-26 02:33N 44°18' E 008°29'0 0.0
2016-Jun-26 01:33N 44°18' E 008°29'0 0.0
2016-Jun-26 00:33N 44°18' E 008°29'0 0.0
2016-Jun-25 23:33N 44°18' E 008°29'0 0.0
2016-Jun-25 22:33N 44°18' E 008°29'0 0.0
2016-Jun-25 08:06N 44°18' E 008°29'1 1.3
2016-Jun-25 07:33N 44°19' E 008°30'3 3.0
2016-Jun-25 06:33N 44°17' E 008°28'2 2.0
2016-Jun-25 05:33N 44°18' E 008°30'0 0.5
2016-Jun-25 04:33N 44°18' E 008°29'0 0.0
2016-Jun-24 17:09N 44°18' E 008°29'0 0.0
2016-Jun-24 13:17N 44°18' E 008°29'0 0.0
2016-Jun-24 08:33N 44°18' E 008°29'0 0.2
2016-Jun-24 07:34N 44°19' E 008°29'0 0.2
2016-Jun-24 06:33N 44°18' E 008°29'0 0.0
2016-Jun-24 03:33N 44°18' E 008°29'0 0.0
2016-Jun-23 21:33N 44°18' E 008°29'0 0.0
2016-Jun-23 20:33N 44°18' E 008°29'0 0.0
2016-Jun-23 19:33N 44°18' E 008°29'0 0.0
2016-Jun-23 18:33N 44°18' E 008°29'0 0.5
2016-Jun-23 17:33N 44°19' E 008°30'0 0.5
2016-Jun-23 16:33N 44°18' E 008°29'6 6.0
2016-Jun-23 15:33N 44°18' E 008°38'1110.5
2016-Jun-23 14:33N 44°16' E 008°52'1010.4
2016-Jun-23 13:33N 44°12' E 009°06'1010.0
2016-Jun-23 12:33N 44°09' E 009°19'1110.6
2016-Jun-23 11:33N 44°04' E 009°32'1010.1
2016-Jun-23 10:33N 44°01' E 009°45'6 6.4
2016-Jun-23 09:33N 44°05' E 009°52'0 0.1
2016-Jun-23 08:33N 44°05' E 009°53'0 0.0
2016-Jun-22 10:33N 44°05' E 009°53'0 0.2
2016-Jun-22 09:33N 44°05' E 009°52'0 0.2
2016-Jun-22 08:33N 44°05' E 009°53'0 0.0
2016-Jun-21 13:18N 44°05' E 009°53'0 0.0
2016-Jun-21 12:33N 44°05' E 009°53'0 0.0
2016-Jun-21 11:33N 44°05' E 009°53'0 0.0
2016-Jun-21 10:33N 44°05' E 009°53'0 0.0
2016-Jun-21 09:33N 44°05' E 009°53'0 0.0
2016-Jun-21 08:33N 44°05' E 009°53'0 0.0
2016-Jun-21 07:33N 44°05' E 009°53'  

Dump ship's entire track history